Página principal
METAR-TAF:

METAR-TAF

Aeroportos :

Lima, Peru

Aeroporto Internacional Jorge Chávez

latitude: 12-00S, longitude: 077-07W, altura: 12 m

Observação actual do tempo

O boletim foi feito há 2 horas e 22 minutos, às 15:00 UTC
Vento 7 kt de sul
Temperatura 20°C
Humidade 73%
Pressão 1016 hPa
Visibilidade 10 km ou mais
Encobertoa uma altura de 2500 ft

METAR: SPJC 281500Z 17007KT 9999 OVC025 20/15 Q1016 NOSIG

Hora: 12:22 (17:22 UTC)

Previsão

O boletim foi feito há 6 horas e 22 minutos, às 11:00 UTC
Previsão válida de 28 às 12 UTC a 29 às 12 UTC
Vento 6 kt de sul
Visibilidade 10 km ou mais
Encobertoa uma altura de 2200 ft
A partir de 28 às 1600 UTC
Vento 12 kt de sul
Visibilidade 10 km ou mais
Nuvens fragmentadasa uma altura de 2500 ft
Tornando-se
de 28 às 20 UTC a 28 às 22 UTC
Encobertoa uma altura de 2200 ft

TAF: SPJC 281100Z 2812/2912 17006KT 9999 OVC022 TX21/2819Z TN17/2911Z FM281600 18012KT 9999 BKN025 BECMG 2820/2822 OVC022

Observações e previsões do tempo de mais de 4000 aeroportos (mensagens METAR e TAF).

As estações disponíveis são os pontos amarelos e vermelhos sobre o mapa.

Mova o rato sobre o mapa para ver o nome da estação.

Depois clique no ponto para visualizar as observações e previsões meteorológicas.

Para alterar o mapa : clique nos botões verdes com uma cruz preta para aumentar o zoom; no botão verde com uma pitada de zoom; ou nas setas verdes para mapas adjacentes.


METAR-TAF: